RKSI/ICN METAR and TAF weather

Enter ICAO airport designator
Station Type Date Time Source
RKSI METAR 2019/10/23 13:00 UTC NOAA

RKSI 231300Z 04003KT CAVOK 17/10 Q1020 NOSIG


Station Type Date Time Source
RKSI Decoded METAR 2019/10/23 13:00 UTC NOAA

Incheon International Airport, Korea, South (RKSI) 37-28N 126-27E
Oct 23, 2019 - 09:00 AM EDT / 2019.10.23 1300 UTC
Wind: from the NE (040 degrees) at 3 MPH (3 KT):0
Visibility: greater than 7 mile(s):0
Temperature: 62 F (17 C)
Dew Point: 50 F (10 C)
Relative Humidity: 63%
Pressure (altimeter): 30.12 in. Hg (1020 hPa)
ob: RKSI 231300Z 04003KT CAVOK 17/10 Q1020 NOSIG
cycle: 13

Station Type Date Time Source
RKSI TAF 2019/10/23 12:09 UTC NOAA

TAF RKSI 231100Z 2312/2418 07008KT 9999 SCT040 BKN120 TN14/2321Z TX22/2405Z
BECMG 2318/2319 01010KT

Example: see airport list